Coram, New York
Current Conditions -  °F | °C
As of 4:56 AM on Friday 31 Oct 2014 (Local Time) from KISP Reporting Station
Scattered Clouds Scattered Clouds  
Wind Chill: 41°   Ceiling: Unl
Heat Index: 44°   Visibility: 10mi
Dew Point: 36°   Wind: 6mph
Humidity: 73%   Direction: 10°N
Pressure: 29.98"   Gusts: NA
Location:  40.87°N, 73°W
Report Text: KISP 310856Z AUTO 01005KT 10SM SCT049 07/02 A2998 RMK AO2 SLP153 T00670022 56004
Loading
Personal Weather Stations






























Interactive Weather Map
Tropical Storm Tracking
New forecast layout! Learn more

10-Day Weather Forecast

Advertisements
Track Severe Weather on mobile